sensor_id;sensor_type;location;lat;lon;timestamp;temperature;humidity
34891;DHT22;21103;51.358;12.412;2022-09-06T00:00:35;19.40;95.30
34891;DHT22;21103;51.358;12.412;2022-09-06T00:03:02;19.40;95.30
34891;DHT22;21103;51.358;12.412;2022-09-06T00:05:28;19.40;95.30
34891;DHT22;21103;51.358;12.412;2022-09-06T00:07:57;19.30;95.10
34891;DHT22;21103;51.358;12.412;2022-09-06T00:10:23;19.30;95.40
34891;DHT22;21103;51.358;12.412;2022-09-06T00:12:48;19.30;95.40
34891;DHT22;21103;51.358;12.412;2022-09-06T00:15:14;19.30;95.40
34891;DHT22;21103;51.358;12.412;2022-09-06T00:17:39;19.30;95.40
34891;DHT22;21103;51.358;12.412;2022-09-06T00:20:05;19.30;95.40
34891;DHT22;21103;51.358;12.412;2022-09-06T00:22:33;19.30;95.40
34891;DHT22;21103;51.358;12.412;2022-09-06T00:25:00;19.30;95.50
34891;DHT22;21103;51.358;12.412;2022-09-06T00:27:26;19.20;95.40
34891;DHT22;21103;51.358;12.412;2022-09-06T00:29:52;19.20;95.40
34891;DHT22;21103;51.358;12.412;2022-09-06T00:32:18;19.20;95.60
34891;DHT22;21103;51.358;12.412;2022-09-06T00:34:44;19.10;95.70
34891;DHT22;21103;51.358;12.412;2022-09-06T00:37:09;19.20;95.60
34891;DHT22;21103;51.358;12.412;2022-09-06T00:39:34;19.10;95.50
34891;DHT22;21103;51.358;12.412;2022-09-06T00:42:00;19.10;95.60
34891;DHT22;21103;51.358;12.412;2022-09-06T00:44:25;19.10;95.50
34891;DHT22;21103;51.358;12.412;2022-09-06T00:46:52;19.10;95.50
34891;DHT22;21103;51.358;12.412;2022-09-06T00:49:30;19.10;95.50
34891;DHT22;21103;51.358;12.412;2022-09-06T00:51:59;19.10;95.60
34891;DHT22;21103;51.358;12.412;2022-09-06T00:54:26;19.10;95.60
34891;DHT22;21103;51.358;12.412;2022-09-06T00:56:53;19.00;95.50
34891;DHT22;21103;51.358;12.412;2022-09-06T00:59:20;19.00;95.60
34891;DHT22;21103;51.358;12.412;2022-09-06T01:01:46;19.00;95.60
34891;DHT22;21103;51.358;12.412;2022-09-06T01:04:12;19.00;95.70
34891;DHT22;21103;51.358;12.412;2022-09-06T01:07:00;19.00;95.70
34891;DHT22;21103;51.358;12.412;2022-09-06T01:09:51;18.90;96.00
34891;DHT22;21103;51.358;12.412;2022-09-06T01:12:39;18.90;96.00
34891;DHT22;21103;51.358;12.412;2022-09-06T01:18:13;18.80;95.90
34891;DHT22;21103;51.358;12.412;2022-09-06T01:26:16;18.70;95.90
34891;DHT22;21103;51.358;12.412;2022-09-06T01:28:45;18.70;95.90
34891;DHT22;21103;51.358;12.412;2022-09-06T01:31:30;18.80;96.00
34891;DHT22;21103;51.358;12.412;2022-09-06T01:36:55;18.80;96.10
34891;DHT22;21103;51.358;12.412;2022-09-06T01:41:47;18.80;96.10
34891;DHT22;21103;51.358;12.412;2022-09-06T01:44:13;18.80;96.10
34891;DHT22;21103;51.358;12.412;2022-09-06T01:46:44;18.80;96.10
34891;DHT22;21103;51.358;12.412;2022-09-06T01:49:32;18.80;96.20
34891;DHT22;21103;51.358;12.412;2022-09-06T02:00:18;18.70;96.20
34891;DHT22;21103;51.358;12.412;2022-09-06T02:02:55;18.60;96.10
34891;DHT22;21103;51.358;12.412;2022-09-06T02:05:47;18.60;96.20
34891;DHT22;21103;51.358;12.412;2022-09-06T02:08:18;18.60;96.20
34891;DHT22;21103;51.358;12.412;2022-09-06T02:10:59;18.50;96.20
34891;DHT22;21103;51.358;12.412;2022-09-06T02:13:30;18.50;96.40
34891;DHT22;21103;51.358;12.412;2022-09-06T02:16:01;18.50;96.40
34891;DHT22;21103;51.358;12.412;2022-09-06T02:19:07;18.40;96.50
34891;DHT22;21103;51.358;12.412;2022-09-06T02:21:39;18.40;96.50
34891;DHT22;21103;51.358;12.412;2022-09-06T02:24:08;18.40;96.60
34891;DHT22;21103;51.358;12.412;2022-09-06T02:26:37;18.30;96.70
34891;DHT22;21103;51.358;12.412;2022-09-06T02:29:04;18.30;96.80
34891;DHT22;21103;51.358;12.412;2022-09-06T02:31:37;18.20;96.80
34891;DHT22;21103;51.358;12.412;2022-09-06T02:34:04;18.30;96.80
34891;DHT22;21103;51.358;12.412;2022-09-06T02:36:31;18.20;96.70
34891;DHT22;21103;51.358;12.412;2022-09-06T02:38:59;18.20;96.80
34891;DHT22;21103;51.358;12.412;2022-09-06T02:41:26;18.20;96.90
34891;DHT22;21103;51.358;12.412;2022-09-06T02:43:53;18.20;96.90
34891;DHT22;21103;51.358;12.412;2022-09-06T02:46:18;18.20;97.00
34891;DHT22;21103;51.358;12.412;2022-09-06T02:48:44;18.20;97.00
34891;DHT22;21103;51.358;12.412;2022-09-06T02:51:11;18.20;97.50
34891;DHT22;21103;51.358;12.412;2022-09-06T02:53:36;18.20;97.20
34891;DHT22;21103;51.358;12.412;2022-09-06T02:56:02;18.20;97.20
34891;DHT22;21103;51.358;12.412;2022-09-06T02:58:28;18.20;97.10
34891;DHT22;21103;51.358;12.412;2022-09-06T03:00:53;18.20;97.10
34891;DHT22;21103;51.358;12.412;2022-09-06T03:03:20;18.20;97.20
34891;DHT22;21103;51.358;12.412;2022-09-06T03:05:47;18.20;97.20
34891;DHT22;21103;51.358;12.412;2022-09-06T03:08:14;18.20;97.10
34891;DHT22;21103;51.358;12.412;2022-09-06T03:10:40;18.20;97.20
34891;DHT22;21103;51.358;12.412;2022-09-06T03:13:05;18.10;97.20
34891;DHT22;21103;51.358;12.412;2022-09-06T03:15:31;18.10;97.20
34891;DHT22;21103;51.358;12.412;2022-09-06T03:17:58;18.10;97.20
34891;DHT22;21103;51.358;12.412;2022-09-06T03:20:23;18.10;97.40
34891;DHT22;21103;51.358;12.412;2022-09-06T03:22:49;18.00;97.40
34891;DHT22;21103;51.358;12.412;2022-09-06T03:25:14;18.00;97.40
34891;DHT22;21103;51.358;12.412;2022-09-06T03:27:40;18.00;97.40
34891;DHT22;21103;51.358;12.412;2022-09-06T03:30:06;18.00;97.40
34891;DHT22;21103;51.358;12.412;2022-09-06T03:32:31;18.00;97.40
34891;DHT22;21103;51.358;12.412;2022-09-06T03:34:57;18.00;97.50
34891;DHT22;21103;51.358;12.412;2022-09-06T03:37:23;18.00;97.70
34891;DHT22;21103;51.358;12.412;2022-09-06T03:39:49;17.90;97.50
34891;DHT22;21103;51.358;12.412;2022-09-06T03:42:14;17.90;97.50
34891;DHT22;21103;51.358;12.412;2022-09-06T03:44:39;17.90;97.60
34891;DHT22;21103;51.358;12.412;2022-09-06T03:47:05;17.90;97.60
34891;DHT22;21103;51.358;12.412;2022-09-06T03:49:30;17.80;97.60
34891;DHT22;21103;51.358;12.412;2022-09-06T03:51:56;17.80;97.80
34891;DHT22;21103;51.358;12.412;2022-09-06T03:54:21;17.70;98.00
34891;DHT22;21103;51.358;12.412;2022-09-06T03:56:48;17.70;98.00
34891;DHT22;21103;51.358;12.412;2022-09-06T03:59:14;17.70;98.00
34891;DHT22;21103;51.358;12.412;2022-09-06T04:01:39;17.70;98.00
34891;DHT22;21103;51.358;12.412;2022-09-06T04:04:05;17.70;98.00
34891;DHT22;21103;51.358;12.412;2022-09-06T04:06:30;17.70;97.90
34891;DHT22;21103;51.358;12.412;2022-09-06T04:08:56;17.60;98.00
34891;DHT22;21103;51.358;12.412;2022-09-06T04:11:21;17.60;98.10
34891;DHT22;21103;51.358;12.412;2022-09-06T04:13:47;17.50;98.30
34891;DHT22;21103;51.358;12.412;2022-09-06T04:16:12;17.50;98.30
34891;DHT22;21103;51.358;12.412;2022-09-06T04:18:38;17.50;98.40
34891;DHT22;21103;51.358;12.412;2022-09-06T04:21:04;17.50;98.50
34891;DHT22;21103;51.358;12.412;2022-09-06T04:23:29;17.50;98.30
34891;DHT22;21103;51.358;12.412;2022-09-06T04:25:58;17.50;98.40
34891;DHT22;21103;51.358;12.412;2022-09-06T04:28:24;17.50;98.30
34891;DHT22;21103;51.358;12.412;2022-09-06T04:30:52;17.40;98.40
34891;DHT22;21103;51.358;12.412;2022-09-06T04:33:18;17.40;98.60
34891;DHT22;21103;51.358;12.412;2022-09-06T04:35:48;17.50;98.60
34891;DHT22;21103;51.358;12.412;2022-09-06T04:38:14;17.50;98.50
34891;DHT22;21103;51.358;12.412;2022-09-06T04:40:40;17.60;98.60
34891;DHT22;21103;51.358;12.412;2022-09-06T04:43:05;17.50;98.50
34891;DHT22;21103;51.358;12.412;2022-09-06T04:45:31;17.50;98.40
34891;DHT22;21103;51.358;12.412;2022-09-06T04:47:56;17.50;98.60
34891;DHT22;21103;51.358;12.412;2022-09-06T04:50:21;17.50;98.40
34891;DHT22;21103;51.358;12.412;2022-09-06T04:52:47;17.50;98.50
34891;DHT22;21103;51.358;12.412;2022-09-06T04:55:12;17.50;98.60
34891;DHT22;21103;51.358;12.412;2022-09-06T04:57:38;17.60;98.50
34891;DHT22;21103;51.358;12.412;2022-09-06T05:00:04;17.60;98.50
34891;DHT22;21103;51.358;12.412;2022-09-06T05:02:30;17.60;98.50
34891;DHT22;21103;51.358;12.412;2022-09-06T05:04:56;17.60;98.50
34891;DHT22;21103;51.358;12.412;2022-09-06T05:07:21;17.60;98.40
34891;DHT22;21103;51.358;12.412;2022-09-06T05:09:47;17.60;98.60
34891;DHT22;21103;51.358;12.412;2022-09-06T05:12:12;17.60;98.50
34891;DHT22;21103;51.358;12.412;2022-09-06T05:14:38;17.60;98.60
34891;DHT22;21103;51.358;12.412;2022-09-06T05:17:04;17.70;98.60
34891;DHT22;21103;51.358;12.412;2022-09-06T05:19:29;17.70;98.60
34891;DHT22;21103;51.358;12.412;2022-09-06T05:21:54;17.70;98.90
34891;DHT22;21103;51.358;12.412;2022-09-06T05:24:20;17.80;98.90
34891;DHT22;21103;51.358;12.412;2022-09-06T05:26:45;17.70;99.00
34891;DHT22;21103;51.358;12.412;2022-09-06T05:29:11;17.70;98.90
34891;DHT22;21103;51.358;12.412;2022-09-06T05:31:36;17.80;98.60
34891;DHT22;21103;51.358;12.412;2022-09-06T05:34:02;17.80;98.80
34891;DHT22;21103;51.358;12.412;2022-09-06T05:36:28;17.80;98.70
34891;DHT22;21103;51.358;12.412;2022-09-06T05:38:55;17.90;98.40
34891;DHT22;21103;51.358;12.412;2022-09-06T05:41:21;17.90;98.10
34891;DHT22;21103;51.358;12.412;2022-09-06T05:43:47;18.00;97.90
34891;DHT22;21103;51.358;12.412;2022-09-06T05:46:13;18.00;97.80
34891;DHT22;21103;51.358;12.412;2022-09-06T05:48:40;18.00;97.80
34891;DHT22;21103;51.358;12.412;2022-09-06T05:51:12;18.10;97.80
34891;DHT22;21103;51.358;12.412;2022-09-06T05:53:43;18.10;97.90
34891;DHT22;21103;51.358;12.412;2022-09-06T05:56:09;18.10;97.80
34891;DHT22;21103;51.358;12.412;2022-09-06T05:58:35;18.10;97.80
34891;DHT22;21103;51.358;12.412;2022-09-06T06:03:37;18.10;97.90
34891;DHT22;21103;51.358;12.412;2022-09-06T06:06:03;18.10;97.90
34891;DHT22;21103;51.358;12.412;2022-09-06T06:08:28;18.10;98.10
34891;DHT22;21103;51.358;12.412;2022-09-06T06:10:58;18.10;98.30
34891;DHT22;21103;51.358;12.412;2022-09-06T06:13:23;18.10;98.30
34891;DHT22;21103;51.358;12.412;2022-09-06T06:15:48;18.10;98.20
34891;DHT22;21103;51.358;12.412;2022-09-06T06:18:14;18.10;97.80
34891;DHT22;21103;51.358;12.412;2022-09-06T06:20:39;18.10;98.10
34891;DHT22;21103;51.358;12.412;2022-09-06T06:23:05;18.10;98.20
34891;DHT22;21103;51.358;12.412;2022-09-06T06:25:30;18.10;98.10
34891;DHT22;21103;51.358;12.412;2022-09-06T06:27:56;18.10;97.90
34891;DHT22;21103;51.358;12.412;2022-09-06T06:30:21;18.10;97.90
34891;DHT22;21103;51.358;12.412;2022-09-06T06:32:46;18.10;97.90
34891;DHT22;21103;51.358;12.412;2022-09-06T06:35:12;18.10;97.70
34891;DHT22;21103;51.358;12.412;2022-09-06T06:37:38;18.20;97.80
34891;DHT22;21103;51.358;12.412;2022-09-06T06:40:03;18.20;97.80
34891;DHT22;21103;51.358;12.412;2022-09-06T06:42:29;18.20;97.80
34891;DHT22;21103;51.358;12.412;2022-09-06T06:44:55;18.20;97.80
34891;DHT22;21103;51.358;12.412;2022-09-06T06:47:21;18.30;97.60
34891;DHT22;21103;51.358;12.412;2022-09-06T06:49:46;18.20;97.50
34891;DHT22;21103;51.358;12.412;2022-09-06T06:52:13;18.20;97.60
34891;DHT22;21103;51.358;12.412;2022-09-06T06:54:38;18.20;97.90
34891;DHT22;21103;51.358;12.412;2022-09-06T06:57:04;18.30;97.90
34891;DHT22;21103;51.358;12.412;2022-09-06T06:59:30;18.30;97.50
34891;DHT22;21103;51.358;12.412;2022-09-06T07:01:55;18.40;97.70
34891;DHT22;21103;51.358;12.412;2022-09-06T07:04:22;18.50;97.50
34891;DHT22;21103;51.358;12.412;2022-09-06T07:06:54;18.50;97.60
34891;DHT22;21103;51.358;12.412;2022-09-06T07:09:21;18.60;97.70
34891;DHT22;21103;51.358;12.412;2022-09-06T07:11:47;18.70;97.50
34891;DHT22;21103;51.358;12.412;2022-09-06T07:14:13;18.80;97.30
34891;DHT22;21103;51.358;12.412;2022-09-06T07:16:39;18.80;97.20
34891;DHT22;21103;51.358;12.412;2022-09-06T07:19:04;18.90;97.40
34891;DHT22;21103;51.358;12.412;2022-09-06T07:21:30;19.00;97.00
34891;DHT22;21103;51.358;12.412;2022-09-06T07:23:56;19.10;97.10
34891;DHT22;21103;51.358;12.412;2022-09-06T07:26:24;19.20;97.00
34891;DHT22;21103;51.358;12.412;2022-09-06T07:28:54;19.30;96.80
34891;DHT22;21103;51.358;12.412;2022-09-06T07:31:20;19.40;96.60
34891;DHT22;21103;51.358;12.412;2022-09-06T07:33:46;19.50;96.60
34891;DHT22;21103;51.358;12.412;2022-09-06T07:36:12;19.60;96.00
34891;DHT22;21103;51.358;12.412;2022-09-06T07:38:37;19.60;96.20
34891;DHT22;21103;51.358;12.412;2022-09-06T07:41:08;19.80;96.30
34891;DHT22;21103;51.358;12.412;2022-09-06T07:43:34;19.90;95.70
34891;DHT22;21103;51.358;12.412;2022-09-06T07:46:11;20.00;96.20
34891;DHT22;21103;51.358;12.412;2022-09-06T07:48:39;20.10;95.60
34891;DHT22;21103;51.358;12.412;2022-09-06T07:51:13;20.20;95.50
34891;DHT22;21103;51.358;12.412;2022-09-06T07:53:40;20.20;95.00
34891;DHT22;21103;51.358;12.412;2022-09-06T07:56:09;20.20;95.30
34891;DHT22;21103;51.358;12.412;2022-09-06T07:58:35;20.20;95.40
34891;DHT22;21103;51.358;12.412;2022-09-06T08:01:15;20.20;95.30
34891;DHT22;21103;51.358;12.412;2022-09-06T08:03:40;20.30;95.80
34891;DHT22;21103;51.358;12.412;2022-09-06T08:06:06;20.40;95.10
34891;DHT22;21103;51.358;12.412;2022-09-06T08:08:31;20.50;94.90
34891;DHT22;21103;51.358;12.412;2022-09-06T08:10:57;20.50;94.80
34891;DHT22;21103;51.358;12.412;2022-09-06T08:13:22;20.40;95.00
34891;DHT22;21103;51.358;12.412;2022-09-06T08:15:48;20.50;95.10
34891;DHT22;21103;51.358;12.412;2022-09-06T08:18:13;20.60;94.50
34891;DHT22;21103;51.358;12.412;2022-09-06T08:20:39;20.60;94.80
34891;DHT22;21103;51.358;12.412;2022-09-06T08:23:10;20.70;95.00
34891;DHT22;21103;51.358;12.412;2022-09-06T08:25:36;20.70;95.30
34891;DHT22;21103;51.358;12.412;2022-09-06T08:28:02;20.80;94.40
34891;DHT22;21103;51.358;12.412;2022-09-06T08:30:27;20.70;94.10
34891;DHT22;21103;51.358;12.412;2022-09-06T08:32:54;20.60;94.60
34891;DHT22;21103;51.358;12.412;2022-09-06T08:35:21;20.70;94.30
34891;DHT22;21103;51.358;12.412;2022-09-06T08:37:46;20.70;94.50
34891;DHT22;21103;51.358;12.412;2022-09-06T08:40:13;20.80;94.50
34891;DHT22;21103;51.358;12.412;2022-09-06T08:42:41;21.00;94.00
34891;DHT22;21103;51.358;12.412;2022-09-06T08:45:09;21.00;94.00
34891;DHT22;21103;51.358;12.412;2022-09-06T08:47:37;21.00;94.00
34891;DHT22;21103;51.358;12.412;2022-09-06T08:50:05;21.00;94.40
34891;DHT22;21103;51.358;12.412;2022-09-06T08:52:59;21.10;94.10
34891;DHT22;21103;51.358;12.412;2022-09-06T09:00:49;21.60;95.00
34891;DHT22;21103;51.358;12.412;2022-09-06T09:03:25;21.90;94.20
34891;DHT22;21103;51.358;12.412;2022-09-06T09:05:55;22.20;93.90
34891;DHT22;21103;51.358;12.412;2022-09-06T09:11:19;22.70;93.30
34891;DHT22;21103;51.358;12.412;2022-09-06T09:16:13;22.90;92.60
34891;DHT22;21103;51.358;12.412;2022-09-06T09:18:41;22.90;92.80
34891;DHT22;21103;51.358;12.412;2022-09-06T09:21:08;22.90;93.00
34891;DHT22;21103;51.358;12.412;2022-09-06T09:23:34;22.80;92.50
34891;DHT22;21103;51.358;12.412;2022-09-06T09:26:06;22.80;93.30
34891;DHT22;21103;51.358;12.412;2022-09-06T09:28:34;22.90;93.40
34891;DHT22;21103;51.358;12.412;2022-09-06T09:31:00;23.00;93.00
34891;DHT22;21103;51.358;12.412;2022-09-06T09:33:29;23.20;93.20
34891;DHT22;21103;51.358;12.412;2022-09-06T09:35:59;23.40;93.40
34891;DHT22;21103;51.358;12.412;2022-09-06T09:38:28;23.60;92.70
34891;DHT22;21103;51.358;12.412;2022-09-06T09:40:56;23.80;92.00
34891;DHT22;21103;51.358;12.412;2022-09-06T09:43:29;23.90;91.80
34891;DHT22;21103;51.358;12.412;2022-09-06T09:49:09;24.20;92.00
34891;DHT22;21103;51.358;12.412;2022-09-06T09:51:41;24.30;92.30
34891;DHT22;21103;51.358;12.412;2022-09-06T09:54:09;24.40;91.50
34891;DHT22;21103;51.358;12.412;2022-09-06T09:56:48;24.50;91.30
34891;DHT22;21103;51.358;12.412;2022-09-06T09:59:25;24.50;90.70
34891;DHT22;21103;51.358;12.412;2022-09-06T10:01:59;24.60;91.00
34891;DHT22;21103;51.358;12.412;2022-09-06T10:04:31;24.70;91.50
34891;DHT22;21103;51.358;12.412;2022-09-06T10:07:13;24.90;91.30
34891;DHT22;21103;51.358;12.412;2022-09-06T10:09:42;24.90;91.10
34891;DHT22;21103;51.358;12.412;2022-09-06T10:12:15;25.00;90.90
34891;DHT22;21103;51.358;12.412;2022-09-06T10:14:47;25.10;91.10
34891;DHT22;21103;51.358;12.412;2022-09-06T10:17:34;25.20;90.50
34891;DHT22;21103;51.358;12.412;2022-09-06T10:20:08;25.20;90.80
34891;DHT22;21103;51.358;12.412;2022-09-06T10:25:45;25.40;90.50
34891;DHT22;21103;51.358;12.412;2022-09-06T10:28:22;25.50;90.10
34891;DHT22;21103;51.358;12.412;2022-09-06T10:36:28;25.80;90.30
34891;DHT22;21103;51.358;12.412;2022-09-06T10:39:01;25.90;90.30
34891;DHT22;21103;51.358;12.412;2022-09-06T10:41:39;26.10;90.10
34891;DHT22;21103;51.358;12.412;2022-09-06T10:47:10;26.30;87.60
34891;DHT22;21103;51.358;12.412;2022-09-06T10:49:37;26.30;88.30
34891;DHT22;21103;51.358;12.412;2022-09-06T10:52:07;26.20;88.00
34891;DHT22;21103;51.358;12.412;2022-09-06T10:54:39;26.20;87.90
34891;DHT22;21103;51.358;12.412;2022-09-06T10:57:18;26.20;88.10
34891;DHT22;21103;51.358;12.412;2022-09-06T10:59:52;26.20;89.00
34891;DHT22;21103;51.358;12.412;2022-09-06T11:05:17;26.10;87.90
34891;DHT22;21103;51.358;12.412;2022-09-06T11:07:50;25.90;88.10
34891;DHT22;21103;51.358;12.412;2022-09-06T11:10:29;25.90;88.50
34891;DHT22;21103;51.358;12.412;2022-09-06T11:15:30;25.70;88.40
34891;DHT22;21103;51.358;12.412;2022-09-06T11:18:50;25.70;89.40
34891;DHT22;21103;51.358;12.412;2022-09-06T11:23:44;25.60;89.20
34891;DHT22;21103;51.358;12.412;2022-09-06T11:27:25;25.50;89.90
34891;DHT22;21103;51.358;12.412;2022-09-06T11:29:24;25.40;89.80
34891;DHT22;21103;51.358;12.412;2022-09-06T11:31:55;25.40;90.10
34891;DHT22;21103;51.358;12.412;2022-09-06T11:34:34;25.40;90.20
34891;DHT22;21103;51.358;12.412;2022-09-06T11:37:02;25.40;90.10
34891;DHT22;21103;51.358;12.412;2022-09-06T11:39:40;25.30;90.30
34891;DHT22;21103;51.358;12.412;2022-09-06T11:47:43;25.20;90.40
34891;DHT22;21103;51.358;12.412;2022-09-06T11:55:37;25.10;90.60
34891;DHT22;21103;51.358;12.412;2022-09-06T12:00:41;25.20;90.70
34891;DHT22;21103;51.358;12.412;2022-09-06T12:06:29;25.40;90.40
34891;DHT22;21103;51.358;12.412;2022-09-06T12:08:56;25.60;90.80
34891;DHT22;21103;51.358;12.412;2022-09-06T12:11:43;25.70;90.60
34891;DHT22;21103;51.358;12.412;2022-09-06T12:14:35;25.80;90.70
34891;DHT22;21103;51.358;12.412;2022-09-06T12:25:00;26.20;90.30
34891;DHT22;21103;51.358;12.412;2022-09-06T12:27:28;26.30;90.20
34891;DHT22;21103;51.358;12.412;2022-09-06T12:30:00;26.40;88.70
34891;DHT22;21103;51.358;12.412;2022-09-06T12:32:47;26.60;87.60
34891;DHT22;21103;51.358;12.412;2022-09-06T12:35:22;26.70;86.80
34891;DHT22;21103;51.358;12.412;2022-09-06T12:37:55;26.70;88.10
34891;DHT22;21103;51.358;12.412;2022-09-06T12:40:22;26.70;87.00
34891;DHT22;21103;51.358;12.412;2022-09-06T12:42:49;26.80;87.10
34891;DHT22;21103;51.358;12.412;2022-09-06T12:45:17;26.80;87.50
34891;DHT22;21103;51.358;12.412;2022-09-06T12:47:43;26.80;88.20
34891;DHT22;21103;51.358;12.412;2022-09-06T12:50:21;26.70;89.40
34891;DHT22;21103;51.358;12.412;2022-09-06T12:52:54;26.70;90.10
34891;DHT22;21103;51.358;12.412;2022-09-06T12:55:36;26.60;89.90
34891;DHT22;21103;51.358;12.412;2022-09-06T12:58:07;26.60;89.80
34891;DHT22;21103;51.358;12.412;2022-09-06T13:00:43;26.50;89.00
34891;DHT22;21103;51.358;12.412;2022-09-06T13:06:18;26.30;88.90
34891;DHT22;21103;51.358;12.412;2022-09-06T13:08:49;26.30;89.60
34891;DHT22;21103;51.358;12.412;2022-09-06T13:11:22;26.40;86.70
34891;DHT22;21103;51.358;12.412;2022-09-06T13:13:51;26.40;88.10
34891;DHT22;21103;51.358;12.412;2022-09-06T13:16:23;26.40;89.40
34891;DHT22;21103;51.358;12.412;2022-09-06T13:18:49;26.30;88.90
34891;DHT22;21103;51.358;12.412;2022-09-06T13:21:28;26.30;88.40
34891;DHT22;21103;51.358;12.412;2022-09-06T13:23:54;26.20;88.60
34891;DHT22;21103;51.358;12.412;2022-09-06T13:26:37;26.20;88.60
34891;DHT22;21103;51.358;12.412;2022-09-06T13:31:51;26.30;89.00
34891;DHT22;21103;51.358;12.412;2022-09-06T13:34:22;26.30;88.40
34891;DHT22;21103;51.358;12.412;2022-09-06T13:36:50;26.40;88.00
34891;DHT22;21103;51.358;12.412;2022-09-06T13:39:30;26.30;89.20
34891;DHT22;21103;51.358;12.412;2022-09-06T13:42:00;26.40;87.60
34891;DHT22;21103;51.358;12.412;2022-09-06T13:44:31;26.40;88.30
34891;DHT22;21103;51.358;12.412;2022-09-06T13:46:57;26.30;89.80
34891;DHT22;21103;51.358;12.412;2022-09-06T13:49:23;26.40;89.30
34891;DHT22;21103;51.358;12.412;2022-09-06T13:51:50;26.60;89.30
34891;DHT22;21103;51.358;12.412;2022-09-06T13:54:16;26.70;89.30
34891;DHT22;21103;51.358;12.412;2022-09-06T13:56:41;26.80;90.10
34891;DHT22;21103;51.358;12.412;2022-09-06T13:59:09;26.80;88.80
34891;DHT22;21103;51.358;12.412;2022-09-06T14:01:38;26.90;88.40
34891;DHT22;21103;51.358;12.412;2022-09-06T14:04:05;27.00;89.30
34891;DHT22;21103;51.358;12.412;2022-09-06T14:06:31;27.20;88.50
34891;DHT22;21103;51.358;12.412;2022-09-06T14:08:56;27.30;88.20
34891;DHT22;21103;51.358;12.412;2022-09-06T14:11:23;27.40;88.50
34891;DHT22;21103;51.358;12.412;2022-09-06T14:13:49;27.50;87.80
34891;DHT22;21103;51.358;12.412;2022-09-06T14:16:14;27.40;87.00
34891;DHT22;21103;51.358;12.412;2022-09-06T14:18:40;27.40;87.70
34891;DHT22;21103;51.358;12.412;2022-09-06T14:21:06;27.20;87.60
34891;DHT22;21103;51.358;12.412;2022-09-06T14:23:32;27.10;88.70
34891;DHT22;21103;51.358;12.412;2022-09-06T14:25:59;26.90;88.60
34891;DHT22;21103;51.358;12.412;2022-09-06T14:28:25;26.90;89.40
34891;DHT22;21103;51.358;12.412;2022-09-06T14:30:51;26.90;89.80
34891;DHT22;21103;51.358;12.412;2022-09-06T14:33:18;26.90;88.90
34891;DHT22;21103;51.358;12.412;2022-09-06T14:35:46;26.90;89.50
34891;DHT22;21103;51.358;12.412;2022-09-06T14:38:11;26.90;89.70
34891;DHT22;21103;51.358;12.412;2022-09-06T14:40:38;26.90;90.50
34891;DHT22;21103;51.358;12.412;2022-09-06T14:43:04;26.90;89.30
34891;DHT22;21103;51.358;12.412;2022-09-06T14:45:32;26.90;90.60
34891;DHT22;21103;51.358;12.412;2022-09-06T14:47:57;27.00;90.10
34891;DHT22;21103;51.358;12.412;2022-09-06T14:50:23;27.30;89.10
34891;DHT22;21103;51.358;12.412;2022-09-06T14:52:48;27.40;88.70
34891;DHT22;21103;51.358;12.412;2022-09-06T14:55:14;27.40;88.90
34891;DHT22;21103;51.358;12.412;2022-09-06T14:57:39;27.30;87.70
34891;DHT22;21103;51.358;12.412;2022-09-06T15:00:05;27.20;88.30
34891;DHT22;21103;51.358;12.412;2022-09-06T15:02:35;27.20;89.10
34891;DHT22;21103;51.358;12.412;2022-09-06T15:05:01;27.20;90.00
34891;DHT22;21103;51.358;12.412;2022-09-06T15:07:27;27.20;89.30
34891;DHT22;21103;51.358;12.412;2022-09-06T15:09:52;27.20;88.80
34891;DHT22;21103;51.358;12.412;2022-09-06T15:12:18;27.10;89.90
34891;DHT22;21103;51.358;12.412;2022-09-06T15:14:44;26.90;89.90
34891;DHT22;21103;51.358;12.412;2022-09-06T15:17:10;26.80;90.00
34891;DHT22;21103;51.358;12.412;2022-09-06T15:19:36;26.70;90.00
34891;DHT22;21103;51.358;12.412;2022-09-06T15:22:07;26.40;90.10
34891;DHT22;21103;51.358;12.412;2022-09-06T15:24:33;26.30;90.30
34891;DHT22;21103;51.358;12.412;2022-09-06T15:26:59;26.10;90.40
34891;DHT22;21103;51.358;12.412;2022-09-06T15:29:25;26.00;90.70
34891;DHT22;21103;51.358;12.412;2022-09-06T15:31:51;25.90;91.50
34891;DHT22;21103;51.358;12.412;2022-09-06T15:34:19;25.90;90.90
34891;DHT22;21103;51.358;12.412;2022-09-06T15:36:45;25.90;91.40
34891;DHT22;21103;51.358;12.412;2022-09-06T15:39:11;25.80;91.30
34891;DHT22;21103;51.358;12.412;2022-09-06T15:41:39;25.80;91.40
34891;DHT22;21103;51.358;12.412;2022-09-06T15:44:10;25.70;91.60
34891;DHT22;21103;51.358;12.412;2022-09-06T15:46:49;25.60;91.90
34891;DHT22;21103;51.358;12.412;2022-09-06T15:49:20;25.60;92.00
34891;DHT22;21103;51.358;12.412;2022-09-06T15:51:47;25.50;92.20
34891;DHT22;21103;51.358;12.412;2022-09-06T15:54:14;25.50;92.30
34891;DHT22;21103;51.358;12.412;2022-09-06T15:56:40;25.50;92.40
34891;DHT22;21103;51.358;12.412;2022-09-06T15:59:06;25.40;92.50
34891;DHT22;21103;51.358;12.412;2022-09-06T16:01:32;25.40;92.60
34891;DHT22;21103;51.358;12.412;2022-09-06T16:03:59;25.30;92.80
34891;DHT22;21103;51.358;12.412;2022-09-06T16:06:29;25.10;92.90
34891;DHT22;21103;51.358;12.412;2022-09-06T16:09:01;25.00;92.90
34891;DHT22;21103;51.358;12.412;2022-09-06T16:11:28;25.00;93.10
34891;DHT22;21103;51.358;12.412;2022-09-06T16:13:54;24.90;93.00
34891;DHT22;21103;51.358;12.412;2022-09-06T16:16:20;24.90;93.40
34891;DHT22;21103;51.358;12.412;2022-09-06T16:18:46;24.90;93.30
34891;DHT22;21103;51.358;12.412;2022-09-06T16:21:15;24.90;93.20
34891;DHT22;21103;51.358;12.412;2022-09-06T16:23:47;24.80;93.20
34891;DHT22;21103;51.358;12.412;2022-09-06T16:26:13;24.80;93.00
34891;DHT22;21103;51.358;12.412;2022-09-06T16:28:40;24.80;92.50
34891;DHT22;21103;51.358;12.412;2022-09-06T16:31:08;24.70;92.80
34891;DHT22;21103;51.358;12.412;2022-09-06T16:33:35;24.70;92.70
34891;DHT22;21103;51.358;12.412;2022-09-06T16:36:03;24.70;92.60
34891;DHT22;21103;51.358;12.412;2022-09-06T16:38:29;24.70;92.80
34891;DHT22;21103;51.358;12.412;2022-09-06T16:40:59;24.70;92.80
34891;DHT22;21103;51.358;12.412;2022-09-06T16:43:25;24.70;92.80
34891;DHT22;21103;51.358;12.412;2022-09-06T16:45:56;24.60;92.90
34891;DHT22;21103;51.358;12.412;2022-09-06T16:48:22;24.50;92.60
34891;DHT22;21103;51.358;12.412;2022-09-06T16:50:47;24.50;92.90
34891;DHT22;21103;51.358;12.412;2022-09-06T16:53:13;24.50;92.90